createdAt,value
2022-08-26T00:03:59.008Z,21.1
2022-08-26T00:13:59.622Z,21.1
2022-08-26T00:34:00.546Z,20.9
2022-08-26T00:44:01.396Z,20.9
2022-08-26T00:54:01.443Z,20.8
2022-08-26T01:04:02.008Z,20.9
2022-08-26T01:14:02.706Z,20.8
2022-08-26T01:34:02.941Z,20.8
2022-08-26T01:44:03.237Z,20.6
2022-08-26T01:54:03.646Z,20.4
2022-08-26T02:04:04.275Z,20.3
2022-08-26T02:14:05.150Z,20.2
2022-08-26T02:24:05.871Z,20.2
2022-08-26T02:34:06.557Z,20.1
2022-08-26T02:44:06.733Z,20.2
2022-08-26T02:54:06.802Z,20.2
2022-08-26T03:04:07.315Z,20.2
2022-08-26T03:14:08.131Z,20
2022-08-26T03:24:08.734Z,19.9
2022-08-26T03:34:09.633Z,19.8
2022-08-26T03:44:10.581Z,19.7
2022-08-26T03:54:11.383Z,19.7
2022-08-26T04:04:12.441Z,19.7
2022-08-26T04:14:12.361Z,19.6
2022-08-26T04:24:13.101Z,19.6
2022-08-26T04:34:14.088Z,19.6
2022-08-26T04:44:14.135Z,19.6
2022-08-26T05:04:16.192Z,19.7
2022-08-26T05:14:15.966Z,19.8
2022-08-26T05:16:54.334Z,19.8
2022-08-26T05:24:24.939Z,19.9
2022-08-26T05:34:25.818Z,19.9
2022-08-26T05:44:25.848Z,20
2022-08-26T05:54:26.606Z,20.1
2022-08-26T06:04:27.117Z,20.3
2022-08-26T06:14:27.740Z,20.3
2022-08-26T06:24:28.581Z,20.4
2022-08-26T06:34:29.967Z,20.6
2022-08-26T06:44:29.161Z,20.6
2022-08-26T06:54:29.634Z,20.5
2022-08-26T07:04:29.923Z,20.9
2022-08-26T07:24:31.268Z,21.1
2022-08-26T07:44:32.680Z,21.1
2022-08-26T07:54:33.529Z,21.1
2022-08-26T08:04:34.086Z,21.2
2022-08-26T08:14:35.039Z,21.3
2022-08-26T08:24:35.873Z,21.4
2022-08-26T08:34:36.521Z,21.5
2022-08-26T08:44:36.648Z,21.5
2022-08-26T08:54:37.069Z,21.7
2022-08-26T09:04:37.393Z,21.7
2022-08-26T09:14:37.432Z,21.7
2022-08-26T09:24:41.367Z,21.9
2022-08-26T09:34:37.861Z,21.9
2022-08-26T09:44:38.299Z,21.8
2022-08-26T09:54:38.679Z,22
2022-08-26T10:04:39.027Z,22.2
2022-08-26T10:14:39.336Z,22.1
2022-08-26T10:24:39.762Z,22.4
2022-08-26T10:34:40.779Z,22.4
2022-08-26T10:44:41.554Z,22.5
2022-08-26T10:54:42.211Z,22.5
2022-08-26T11:04:47.056Z,22.6
2022-08-26T11:14:53.155Z,22.4
2022-08-26T11:24:44.025Z,22.4
2022-08-26T11:34:44.925Z,22.7
2022-08-26T11:54:45.384Z,22.9
2022-08-26T12:14:46.462Z,22.8
2022-08-26T12:34:47.482Z,23.3
2022-08-26T12:44:52.971Z,23.4
2022-08-26T12:54:50.731Z,23.5
2022-08-26T13:04:49.382Z,23.4
2022-08-26T13:14:49.701Z,23.4
2022-08-26T13:34:51.443Z,23.3
2022-08-26T13:54:51.631Z,23.2
2022-08-26T14:04:52.086Z,23.2
2022-08-26T14:14:52.410Z,23.2
2022-08-26T14:44:54.198Z,23.2
2022-08-26T14:54:54.847Z,23.1
2022-08-26T15:14:54.942Z,22.8
2022-08-26T15:24:55.335Z,22.8
2022-08-26T15:34:56.314Z,22.7
2022-08-26T15:44:57.024Z,22.6
2022-08-26T15:54:57.658Z,22.5
2022-08-26T16:04:58.149Z,22.5
2022-08-26T16:14:58.719Z,22.3
2022-08-26T16:24:59.137Z,21.9
2022-08-26T16:34:59.755Z,22
2022-08-26T16:45:00.475Z,22
2022-08-26T16:55:01.375Z,21.8
2022-08-26T17:05:01.963Z,21.6
2022-08-26T17:15:02.391Z,21.6
2022-08-26T17:35:03.569Z,21.5
2022-08-26T17:45:04.167Z,21.6
2022-08-26T17:55:04.975Z,21.5
2022-08-26T18:05:05.184Z,21.3
2022-08-26T18:15:05.343Z,21.4
2022-08-26T18:25:05.488Z,21.4
2022-08-26T18:55:06.478Z,21
2022-08-26T19:05:07.109Z,21
2022-08-26T19:15:07.158Z,20.9
2022-08-26T19:25:07.928Z,20.8
2022-08-26T19:35:08.772Z,20.7
2022-08-26T19:45:09.303Z,20.6
2022-08-26T19:55:09.366Z,20.5
2022-08-26T20:05:09.933Z,20.4
2022-08-26T20:15:10.793Z,20.2
2022-08-26T20:25:10.837Z,20.1
2022-08-26T20:35:11.053Z,20.1
2022-08-26T20:45:11.346Z,20
2022-08-26T20:55:11.944Z,19.9
2022-08-26T21:05:12.025Z,19.7
2022-08-26T21:15:12.378Z,19.5
2022-08-26T21:35:12.985Z,19.3
2022-08-26T21:45:13.672Z,19.2
2022-08-26T21:55:14.366Z,18.9
2022-08-26T22:05:14.767Z,18.6
2022-08-26T22:15:15.525Z,18.3
2022-08-26T22:25:16.377Z,18
2022-08-26T22:35:28.597Z,17.8
2022-08-26T22:45:17.777Z,17.8
2022-08-26T22:55:18.490Z,17.7
2022-08-26T23:05:18.635Z,17.6
2022-08-26T23:15:19.348Z,17.6
2022-08-26T23:25:19.558Z,17.5
2022-08-26T23:35:20.433Z,17.5
2022-08-26T23:55:21.225Z,17.6
